sensor_id;sensor_type;location;lat;lon;timestamp;P1;durP1;ratioP1;P2;durP2;ratioP2
67685;SDS011;54469;52.090;4.312;2023-04-15T00:00:03;5.7;;;2.4;;
67685;SDS011;54469;52.090;4.312;2023-04-15T00:05:03;5.7;;;2.4;;
67685;SDS011;54469;52.090;4.312;2023-04-15T00:10:02;5.7;;;2.4;;
67685;SDS011;54469;52.090;4.312;2023-04-15T00:15:02;5.7;;;2.4;;
67685;SDS011;54469;52.090;4.312;2023-04-15T00:20:03;5.7;;;2.4;;
67685;SDS011;54469;52.090;4.312;2023-04-15T00:25:03;7.7;;;2.9;;
67685;SDS011;54469;52.090;4.312;2023-04-15T00:30:02;4.9;;;2.6;;
67685;SDS011;54469;52.090;4.312;2023-04-15T00:35:03;4.9;;;2.6;;
67685;SDS011;54469;52.090;4.312;2023-04-15T00:40:03;8.699999999999998;;;3;;
67685;SDS011;54469;52.090;4.312;2023-04-15T00:45:03;8.699999999999998;;;3;;
67685;SDS011;54469;52.090;4.312;2023-04-15T00:50:02;8.699999999999998;;;3;;
67685;SDS011;54469;52.090;4.312;2023-04-15T00:55:02;8.699999999999998;;;3;;
67685;SDS011;54469;52.090;4.312;2023-04-15T01:00:03;8.699999999999998;;;3;;
67685;SDS011;54469;52.090;4.312;2023-04-15T01:05:02;6.7;;;3.3;;
67685;SDS011;54469;52.090;4.312;2023-04-15T01:10:03;6.7;;;3.3;;
67685;SDS011;54469;52.090;4.312;2023-04-15T01:15:03;9;;;3.3;;
67685;SDS011;54469;52.090;4.312;2023-04-15T01:20:03;9;;;3.3;;
67685;SDS011;54469;52.090;4.312;2023-04-15T01:25:05;5.8;;;3.1;;
67685;SDS011;54469;52.090;4.312;2023-04-15T01:30:03;5.8;;;3.1;;
67685;SDS011;54469;52.090;4.312;2023-04-15T01:35:02;5.8;;;3.1;;
67685;SDS011;54469;52.090;4.312;2023-04-15T01:40:02;9.1;;;3.5;;
67685;SDS011;54469;52.090;4.312;2023-04-15T01:45:03;9.1;;;3.5;;
67685;SDS011;54469;52.090;4.312;2023-04-15T01:50:03;9.1;;;3.5;;
67685;SDS011;54469;52.090;4.312;2023-04-15T01:55:03;9.1;;;3.5;;
67685;SDS011;54469;52.090;4.312;2023-04-15T02:00:02;9.1;;;3.5;;
67685;SDS011;54469;52.090;4.312;2023-04-15T02:05:02;9.1;;;3.5;;
67685;SDS011;54469;52.090;4.312;2023-04-15T02:10:03;9.1;;;3.5;;
67685;SDS011;54469;52.090;4.312;2023-04-15T02:15:03;9.1;;;3.5;;
67685;SDS011;54469;52.090;4.312;2023-04-15T02:20:02;6.6;;;3.4;;
67685;SDS011;54469;52.090;4.312;2023-04-15T02:25:03;6.6;;;3.4;;
67685;SDS011;54469;52.090;4.312;2023-04-15T02:30:03;6.6;;;3.4;;
67685;SDS011;54469;52.090;4.312;2023-04-15T02:35:02;6.6;;;3.4;;
67685;SDS011;54469;52.090;4.312;2023-04-15T02:40:03;9.5;;;3.9;;
67685;SDS011;54469;52.090;4.312;2023-04-15T02:45:03;9.5;;;3.9;;
67685;SDS011;54469;52.090;4.312;2023-04-15T02:50:03;7.5;;;3.6;;
67685;SDS011;54469;52.090;4.312;2023-04-15T02:55:03;7.5;;;3.6;;
67685;SDS011;54469;52.090;4.312;2023-04-15T03:00:03;7.5;;;3.6;;
67685;SDS011;54469;52.090;4.312;2023-04-15T03:05:02;7.5;;;3.6;;
67685;SDS011;54469;52.090;4.312;2023-04-15T03:10:02;7.5;;;3.6;;
67685;SDS011;54469;52.090;4.312;2023-04-15T03:15:03;7.5;;;3.6;;
67685;SDS011;54469;52.090;4.312;2023-04-15T03:20:03;7.5;;;3.6;;
67685;SDS011;54469;52.090;4.312;2023-04-15T03:25:02;7.5;;;3.6;;
67685;SDS011;54469;52.090;4.312;2023-04-15T03:30:02;7.5;;;3.6;;
67685;SDS011;54469;52.090;4.312;2023-04-15T03:35:03;7.5;;;3.6;;
67685;SDS011;54469;52.090;4.312;2023-04-15T03:40:03;10.1;;;4.1;;
67685;SDS011;54469;52.090;4.312;2023-04-15T03:45:02;10.1;;;4.1;;
67685;SDS011;54469;52.090;4.312;2023-04-15T03:50:02;7.1;;;3.6;;
67685;SDS011;54469;52.090;4.312;2023-04-15T03:55:03;7.1;;;3.6;;
67685;SDS011;54469;52.090;4.312;2023-04-15T04:00:03;9.800000000000002;;;3.7;;
67685;SDS011;54469;52.090;4.312;2023-04-15T04:05:03;7.3;;;3.9;;
67685;SDS011;54469;52.090;4.312;2023-04-15T04:10:02;7.3;;;3.9;;
67685;SDS011;54469;52.090;4.312;2023-04-15T04:15:02;7.3;;;3.9;;
67685;SDS011;54469;52.090;4.312;2023-04-15T04:20:03;7.3;;;3.9;;
67685;SDS011;54469;52.090;4.312;2023-04-15T04:25:02;7.3;;;3.9;;
67685;SDS011;54469;52.090;4.312;2023-04-15T04:30:03;7.3;;;3.9;;
67685;SDS011;54469;52.090;4.312;2023-04-15T04:35:03;7.3;;;3.9;;
67685;SDS011;54469;52.090;4.312;2023-04-15T04:40:03;7.3;;;3.9;;
67685;SDS011;54469;52.090;4.312;2023-04-15T04:45:03;7.3;;;3.9;;
67685;SDS011;54469;52.090;4.312;2023-04-15T04:50:03;7.3;;;3.9;;
67685;SDS011;54469;52.090;4.312;2023-04-15T04:55:03;7.3;;;3.9;;
67685;SDS011;54469;52.090;4.312;2023-04-15T05:00:03;7.3;;;3.9;;
67685;SDS011;54469;52.090;4.312;2023-04-15T05:05:02;7.3;;;3.9;;
67685;SDS011;54469;52.090;4.312;2023-04-15T05:10:03;7.3;;;3.9;;
67685;SDS011;54469;52.090;4.312;2023-04-15T05:15:03;7.3;;;3.9;;
67685;SDS011;54469;52.090;4.312;2023-04-15T05:20:03;7.3;;;3.9;;
67685;SDS011;54469;52.090;4.312;2023-04-15T05:25:03;7.3;;;3.9;;
67685;SDS011;54469;52.090;4.312;2023-04-15T05:30:02;7.3;;;3.9;;
67685;SDS011;54469;52.090;4.312;2023-04-15T05:35:02;7.3;;;3.9;;
67685;SDS011;54469;52.090;4.312;2023-04-15T05:40:03;7.3;;;3.9;;
67685;SDS011;54469;52.090;4.312;2023-04-15T05:45:03;7.3;;;3.9;;
67685;SDS011;54469;52.090;4.312;2023-04-15T05:50:03;7.3;;;3.9;;
67685;SDS011;54469;52.090;4.312;2023-04-15T05:55:03;7.3;;;3.9;;
67685;SDS011;54469;52.090;4.312;2023-04-15T06:00:03;7.3;;;3.9;;
67685;SDS011;54469;52.090;4.312;2023-04-15T06:05:02;7.3;;;3.9;;
67685;SDS011;54469;52.090;4.312;2023-04-15T06:10:02;7.3;;;3.9;;
67685;SDS011;54469;52.090;4.312;2023-04-15T06:15:03;7.3;;;3.9;;
67685;SDS011;54469;52.090;4.312;2023-04-15T06:20:03;7.3;;;3.9;;
67685;SDS011;54469;52.090;4.312;2023-04-15T06:25:03;7.3;;;3.9;;
67685;SDS011;54469;52.090;4.312;2023-04-15T06:30:02;9.9;;;4.5;;
67685;SDS011;54469;52.090;4.312;2023-04-15T06:35:03;6.7;;;3.7;;
67685;SDS011;54469;52.090;4.312;2023-04-15T06:40:03;6.7;;;3.7;;
67685;SDS011;54469;52.090;4.312;2023-04-15T06:45:03;6.7;;;3.7;;
67685;SDS011;54469;52.090;4.312;2023-04-15T06:50:03;6.7;;;3.7;;
67685;SDS011;54469;52.090;4.312;2023-04-15T06:55:02;6.7;;;3.7;;
67685;SDS011;54469;52.090;4.312;2023-04-15T07:00:02;6.7;;;3.7;;
67685;SDS011;54469;52.090;4.312;2023-04-15T07:05:04;6.7;;;3.7;;
67685;SDS011;54469;52.090;4.312;2023-04-15T07:10:03;6.7;;;3.7;;
67685;SDS011;54469;52.090;4.312;2023-04-15T07:15:03;6.7;;;3.7;;
67685;SDS011;54469;52.090;4.312;2023-04-15T07:20:03;6.7;;;3.7;;
67685;SDS011;54469;52.090;4.312;2023-04-15T07:25:05;6.7;;;3.7;;
67685;SDS011;54469;52.090;4.312;2023-04-15T07:30:03;6.7;;;3.7;;
67685;SDS011;54469;52.090;4.312;2023-04-15T07:35:03;4.4;;;3.8;;
67685;SDS011;54469;52.090;4.312;2023-04-15T07:40:02;4.4;;;3.8;;
67685;SDS011;54469;52.090;4.312;2023-04-15T07:45:02;4.4;;;3.8;;
67685;SDS011;54469;52.090;4.312;2023-04-15T07:50:04;4.4;;;3.8;;
67685;SDS011;54469;52.090;4.312;2023-04-15T07:55:02;4.4;;;3.8;;
67685;SDS011;54469;52.090;4.312;2023-04-15T08:00:03;4.4;;;3.8;;
67685;SDS011;54469;52.090;4.312;2023-04-15T08:05:02;4.4;;;3.8;;
67685;SDS011;54469;52.090;4.312;2023-04-15T08:10:03;4.4;;;3.8;;
67685;SDS011;54469;52.090;4.312;2023-04-15T08:15:02;4.4;;;3.8;;
67685;SDS011;54469;52.090;4.312;2023-04-15T08:20:02;4.4;;;3.8;;
67685;SDS011;54469;52.090;4.312;2023-04-15T08:25:03;6.4;;;4.4;;
67685;SDS011;54469;52.090;4.312;2023-04-15T08:30:03;6.4;;;4.4;;
67685;SDS011;54469;52.090;4.312;2023-04-15T08:35:03;4.4;;;3.8;;
67685;SDS011;54469;52.090;4.312;2023-04-15T08:40:02;4.4;;;3.8;;
67685;SDS011;54469;52.090;4.312;2023-04-15T08:45:03;5.3;;;4.8;;
67685;SDS011;54469;52.090;4.312;2023-04-15T08:50:02;5.3;;;4.8;;
67685;SDS011;54469;52.090;4.312;2023-04-15T08:55:03;5.3;;;4.8;;
67685;SDS011;54469;52.090;4.312;2023-04-15T09:00:03;5.3;;;4.8;;
67685;SDS011;54469;52.090;4.312;2023-04-15T09:05:02;5.3;;;4.8;;
67685;SDS011;54469;52.090;4.312;2023-04-15T09:10:02;5.3;;;4.8;;
67685;SDS011;54469;52.090;4.312;2023-04-15T09:15:03;5.3;;;4.8;;
67685;SDS011;54469;52.090;4.312;2023-04-15T09:20:06;5.3;;;4.8;;
67685;SDS011;54469;52.090;4.312;2023-04-15T09:25:02;5.3;;;4.8;;
67685;SDS011;54469;52.090;4.312;2023-04-15T09:30:06;5.3;;;4.8;;
67685;SDS011;54469;52.090;4.312;2023-04-15T09:35:10;5.3;;;4.8;;
67685;SDS011;54469;52.090;4.312;2023-04-15T09:40:03;5.3;;;4.8;;
67685;SDS011;54469;52.090;4.312;2023-04-15T09:45:10;5.3;;;4.8;;
67685;SDS011;54469;52.090;4.312;2023-04-15T09:50:03;5.3;;;4.8;;
67685;SDS011;54469;52.090;4.312;2023-04-15T09:55:02;5.3;;;4.8;;
67685;SDS011;54469;52.090;4.312;2023-04-15T10:00:03;3.6;;;3.06667;;
67685;SDS011;54469;52.090;4.312;2023-04-15T10:05:03;3.6;;;3.06667;;
67685;SDS011;54469;52.090;4.312;2023-04-15T10:10:03;3.6;;;3.06667;;
67685;SDS011;54469;52.090;4.312;2023-04-15T10:15:03;3.6;;;3.06667;;
67685;SDS011;54469;52.090;4.312;2023-04-15T10:20:02;3.6;;;3.06667;;
67685;SDS011;54469;52.090;4.312;2023-04-15T10:25:02;3.6;;;3.06667;;
67685;SDS011;54469;52.090;4.312;2023-04-15T10:30:03;3.6;;;3.06667;;
67685;SDS011;54469;52.090;4.312;2023-04-15T10:35:03;3.6;;;3.06667;;
67685;SDS011;54469;52.090;4.312;2023-04-15T10:40:22;3.6;;;3.06667;;
67685;SDS011;54469;52.090;4.312;2023-04-15T10:45:02;5.6;;;5.2;;
67685;SDS011;54469;52.090;4.312;2023-04-15T10:50:03;7.4;;;6.3;;
67685;SDS011;54469;52.090;4.312;2023-04-15T10:55:11;7.4;;;6.3;;
67685;SDS011;54469;52.090;4.312;2023-04-15T11:00:09;7.4;;;6.3;;
67685;SDS011;54469;52.090;4.312;2023-04-15T11:05:03;8.199999999999998;;;7.5;;
67685;SDS011;54469;52.090;4.312;2023-04-15T11:10:02;8.199999999999998;;;7.5;;
67685;SDS011;54469;52.090;4.312;2023-04-15T11:15:38;8.199999999999998;;;7.5;;
67685;SDS011;54469;52.090;4.312;2023-04-15T11:20:02;8.199999999999998;;;7.5;;
67685;SDS011;54469;52.090;4.312;2023-04-15T11:25:02;8.199999999999998;;;7.5;;
67685;SDS011;54469;52.090;4.312;2023-04-15T11:30:16;8.199999999999998;;;7.5;;
67685;SDS011;54469;52.090;4.312;2023-04-15T11:35:03;8.199999999999998;;;7.5;;
67685;SDS011;54469;52.090;4.312;2023-04-15T11:40:03;8.199999999999998;;;7.5;;
67685;SDS011;54469;52.090;4.312;2023-04-15T11:45:06;8.199999999999998;;;7.5;;
67685;SDS011;54469;52.090;4.312;2023-04-15T11:50:18;8.199999999999998;;;7.5;;
67685;SDS011;54469;52.090;4.312;2023-04-15T11:55:03;8.199999999999998;;;7.5;;
67685;SDS011;54469;52.090;4.312;2023-04-15T12:00:02;8.199999999999998;;;7.5;;
67685;SDS011;54469;52.090;4.312;2023-04-15T12:05:02;8.199999999999998;;;7.5;;
67685;SDS011;54469;52.090;4.312;2023-04-15T12:10:02;8.199999999999998;;;7.5;;
67685;SDS011;54469;52.090;4.312;2023-04-15T12:15:03;8.9;;;6.1;;
67685;SDS011;54469;52.090;4.312;2023-04-15T12:20:03;8.9;;;6.1;;
67685;SDS011;54469;52.090;4.312;2023-04-15T12:25:02;8.9;;;6.1;;
67685;SDS011;54469;52.090;4.312;2023-04-15T12:30:03;8.9;;;6.1;;
67685;SDS011;54469;52.090;4.312;2023-04-15T12:35:02;6.13333;;;3.93333;;
67685;SDS011;54469;52.090;4.312;2023-04-15T12:40:03;6.13333;;;3.93333;;
67685;SDS011;54469;52.090;4.312;2023-04-15T12:45:03;12.3;;;5.8;;
67685;SDS011;54469;52.090;4.312;2023-04-15T12:50:03;12.3;;;5.8;;
67685;SDS011;54469;52.090;4.312;2023-04-15T12:55:02;9.1;;;4.4;;
67685;SDS011;54469;52.090;4.312;2023-04-15T13:00:03;6.8;;;3.3;;
67685;SDS011;54469;52.090;4.312;2023-04-15T13:05:03;6.8;;;3.3;;
67685;SDS011;54469;52.090;4.312;2023-04-15T13:10:03;6.8;;;3.3;;
67685;SDS011;54469;52.090;4.312;2023-04-15T13:15:02;6.8;;;3.3;;
67685;SDS011;54469;52.090;4.312;2023-04-15T13:20:03;8.6;;;2.2;;
67685;SDS011;54469;52.090;4.312;2023-04-15T13:25:03;8.6;;;2.2;;
67685;SDS011;54469;52.090;4.312;2023-04-15T13:30:03;4.9;;;2.2;;
67685;SDS011;54469;52.090;4.312;2023-04-15T13:35:03;8;;;2.1;;
67685;SDS011;54469;52.090;4.312;2023-04-15T13:40:02;8;;;2.1;;
67685;SDS011;54469;52.090;4.312;2023-04-15T13:45:02;8;;;2.1;;
67685;SDS011;54469;52.090;4.312;2023-04-15T13:50:03;8;;;2.1;;
67685;SDS011;54469;52.090;4.312;2023-04-15T13:55:03;8;;;2.1;;
67685;SDS011;54469;52.090;4.312;2023-04-15T14:00:03;10.7;;;2.5;;
67685;SDS011;54469;52.090;4.312;2023-04-15T14:05:02;7.7;;;1.7;;
67685;SDS011;54469;52.090;4.312;2023-04-15T14:10:02;7.7;;;1.7;;
67685;SDS011;54469;52.090;4.312;2023-04-15T14:15:02;7.7;;;1.7;;
67685;SDS011;54469;52.090;4.312;2023-04-15T14:20:05;7.7;;;1.7;;
67685;SDS011;54469;52.090;4.312;2023-04-15T14:25:03;7.7;;;1.7;;
67685;SDS011;54469;52.090;4.312;2023-04-15T14:30:03;7.7;;;1.7;;
67685;SDS011;54469;52.090;4.312;2023-04-15T14:35:02;7.7;;;1.7;;
67685;SDS011;54469;52.090;4.312;2023-04-15T14:40:03;8.9;;;2.8;;
67685;SDS011;54469;52.090;4.312;2023-04-15T14:45:03;8.9;;;2.8;;
67685;SDS011;54469;52.090;4.312;2023-04-15T14:50:03;8.9;;;2.8;;
67685;SDS011;54469;52.090;4.312;2023-04-15T14:55:03;8.9;;;2.8;;
67685;SDS011;54469;52.090;4.312;2023-04-15T15:00:03;11.7;;;2.6;;
67685;SDS011;54469;52.090;4.312;2023-04-15T15:05:02;4.7;;;1.6;;
67685;SDS011;54469;52.090;4.312;2023-04-15T15:10:03;8.800000000000002;;;2;;
67685;SDS011;54469;52.090;4.312;2023-04-15T15:15:03;5.1;;;1.8;;
67685;SDS011;54469;52.090;4.312;2023-04-15T15:20:03;7.2;;;1.9;;
67685;SDS011;54469;52.090;4.312;2023-04-15T15:25:03;7.2;;;1.9;;
67685;SDS011;54469;52.090;4.312;2023-04-15T15:30:03;7.2;;;1.9;;
67685;SDS011;54469;52.090;4.312;2023-04-15T15:35:03;7.2;;;1.9;;
67685;SDS011;54469;52.090;4.312;2023-04-15T15:40:03;7.2;;;1.9;;
67685;SDS011;54469;52.090;4.312;2023-04-15T15:45:03;9.5;;;1.9;;
67685;SDS011;54469;52.090;4.312;2023-04-15T15:50:02;6;;;1.7;;
67685;SDS011;54469;52.090;4.312;2023-04-15T15:55:03;6;;;1.7;;
67685;SDS011;54469;52.090;4.312;2023-04-15T16:00:03;6;;;1.7;;
67685;SDS011;54469;52.090;4.312;2023-04-15T16:05:03;9.1;;;1.7;;
67685;SDS011;54469;52.090;4.312;2023-04-15T16:10:03;6.8;;;1.8;;
67685;SDS011;54469;52.090;4.312;2023-04-15T16:15:03;6.8;;;1.8;;
67685;SDS011;54469;52.090;4.312;2023-04-15T16:20:03;9.199999999999998;;;1.9;;
67685;SDS011;54469;52.090;4.312;2023-04-15T16:25:03;7.1;;;1.5;;
67685;SDS011;54469;52.090;4.312;2023-04-15T16:30:02;11.1;;;2.2;;
67685;SDS011;54469;52.090;4.312;2023-04-15T16:35:02;6.4;;;1.6;;
67685;SDS011;54469;52.090;4.312;2023-04-15T16:40:03;6.4;;;1.6;;
67685;SDS011;54469;52.090;4.312;2023-04-15T16:45:03;8.699999999999998;;;1.5;;
67685;SDS011;54469;52.090;4.312;2023-04-15T16:50:03;8.699999999999998;;;1.5;;
67685;SDS011;54469;52.090;4.312;2023-04-15T16:55:03;8.699999999999998;;;1.5;;
67685;SDS011;54469;52.090;4.312;2023-04-15T17:00:03;8.699999999999998;;;1.5;;
67685;SDS011;54469;52.090;4.312;2023-04-15T17:05:02;8.699999999999998;;;1.5;;
67685;SDS011;54469;52.090;4.312;2023-04-15T17:10:02;6.2;;;1.4;;
67685;SDS011;54469;52.090;4.312;2023-04-15T17:15:03;6.2;;;1.4;;
67685;SDS011;54469;52.090;4.312;2023-04-15T17:20:03;8.5;;;1.3;;
67685;SDS011;54469;52.090;4.312;2023-04-15T17:25:02;8.5;;;1.3;;
67685;SDS011;54469;52.090;4.312;2023-04-15T17:30:03;5.3;;;1.2;;
67685;SDS011;54469;52.090;4.312;2023-04-15T17:35:03;5.3;;;1.2;;
67685;SDS011;54469;52.090;4.312;2023-04-15T17:40:03;8.199999999999998;;;1.4;;
67685;SDS011;54469;52.090;4.312;2023-04-15T17:45:03;5;;;1;;
67685;SDS011;54469;52.090;4.312;2023-04-15T17:50:02;5;;;1;;
67685;SDS011;54469;52.090;4.312;2023-04-15T17:55:03;9;;;1.3;;
67685;SDS011;54469;52.090;4.312;2023-04-15T18:00:02;9;;;1.3;;
67685;SDS011;54469;52.090;4.312;2023-04-15T18:05:04;9;;;1.3;;
67685;SDS011;54469;52.090;4.312;2023-04-15T18:10:03;9;;;1.3;;
67685;SDS011;54469;52.090;4.312;2023-04-15T18:15:03;9;;;1.3;;
67685;SDS011;54469;52.090;4.312;2023-04-15T18:20:02;6;;;1.2;;
67685;SDS011;54469;52.090;4.312;2023-04-15T18:25:03;6;;;1.2;;
67685;SDS011;54469;52.090;4.312;2023-04-15T18:30:02;6;;;1.2;;
67685;SDS011;54469;52.090;4.312;2023-04-15T18:35:02;12.1;;;1.2;;
67685;SDS011;54469;52.090;4.312;2023-04-15T18:40:02;8.4;;;1.6;;
67685;SDS011;54469;52.090;4.312;2023-04-15T18:45:02;8.4;;;1.6;;
67685;SDS011;54469;52.090;4.312;2023-04-15T18:50:03;8.4;;;1.6;;
67685;SDS011;54469;52.090;4.312;2023-04-15T18:55:03;12.4;;;1.4;;
67685;SDS011;54469;52.090;4.312;2023-04-15T19:00:03;6.9;;;1.2;;
67685;SDS011;54469;52.090;4.312;2023-04-15T19:05:03;9.300000000000002;;;2.9;;
67685;SDS011;54469;52.090;4.312;2023-04-15T19:10:03;14.1;;;1.7;;
67685;SDS011;54469;52.090;4.312;2023-04-15T19:15:03;8.699999999999998;;;1.3;;
67685;SDS011;54469;52.090;4.312;2023-04-15T19:20:04;8.699999999999998;;;1.3;;
67685;SDS011;54469;52.090;4.312;2023-04-15T19:25:02;8.699999999999998;;;1.3;;
67685;SDS011;54469;52.090;4.312;2023-04-15T19:30:02;8.699999999999998;;;1.3;;
67685;SDS011;54469;52.090;4.312;2023-04-15T19:35:05;6.1;;;1.1;;
67685;SDS011;54469;52.090;4.312;2023-04-15T19:40:03;8.5;;;1.4;;
67685;SDS011;54469;52.090;4.312;2023-04-15T19:45:03;8.5;;;1.4;;
67685;SDS011;54469;52.090;4.312;2023-04-15T19:50:02;8.5;;;1.4;;
67685;SDS011;54469;52.090;4.312;2023-04-15T19:55:03;8.5;;;1.4;;
67685;SDS011;54469;52.090;4.312;2023-04-15T20:00:04;5.4;;;1.2;;
67685;SDS011;54469;52.090;4.312;2023-04-15T20:05:03;5.4;;;1.2;;
67685;SDS011;54469;52.090;4.312;2023-04-15T20:10:03;5.4;;;1.2;;
67685;SDS011;54469;52.090;4.312;2023-04-15T20:15:03;10.6;;;1.4;;
67685;SDS011;54469;52.090;4.312;2023-04-15T20:20:03;6.3;;;0.8;;
67685;SDS011;54469;52.090;4.312;2023-04-15T20:25:03;6.3;;;0.8;;
67685;SDS011;54469;52.090;4.312;2023-04-15T20:30:03;6.3;;;0.8;;
67685;SDS011;54469;52.090;4.312;2023-04-15T20:35:03;6.3;;;0.8;;
67685;SDS011;54469;52.090;4.312;2023-04-15T20:40:03;6.3;;;0.8;;
67685;SDS011;54469;52.090;4.312;2023-04-15T20:45:03;6.3;;;0.8;;
67685;SDS011;54469;52.090;4.312;2023-04-15T20:50:03;6.3;;;0.8;;
67685;SDS011;54469;52.090;4.312;2023-04-15T20:55:03;6.3;;;0.8;;
67685;SDS011;54469;52.090;4.312;2023-04-15T21:00:03;6.3;;;0.8;;
67685;SDS011;54469;52.090;4.312;2023-04-15T21:05:03;9.300000000000002;;;0.7;;
67685;SDS011;54469;52.090;4.312;2023-04-15T21:10:03;3.9;;;0.6;;
67685;SDS011;54469;52.090;4.312;2023-04-15T21:15:02;7.3;;;0.8;;
67685;SDS011;54469;52.090;4.312;2023-04-15T21:20:02;7.3;;;0.8;;
67685;SDS011;54469;52.090;4.312;2023-04-15T21:25:02;7.3;;;0.8;;
67685;SDS011;54469;52.090;4.312;2023-04-15T21:30:03;7.3;;;0.8;;
67685;SDS011;54469;52.090;4.312;2023-04-15T21:35:03;7.3;;;0.8;;
67685;SDS011;54469;52.090;4.312;2023-04-15T21:40:03;5.1;;;0.8;;
67685;SDS011;54469;52.090;4.312;2023-04-15T21:45:03;5.1;;;0.8;;
67685;SDS011;54469;52.090;4.312;2023-04-15T21:50:03;5.1;;;0.8;;
67685;SDS011;54469;52.090;4.312;2023-04-15T21:55:03;5.1;;;0.8;;
67685;SDS011;54469;52.090;4.312;2023-04-15T22:00:03;7.1;;;0.8;;
67685;SDS011;54469;52.090;4.312;2023-04-15T22:05:02;5.1;;;0.8;;
67685;SDS011;54469;52.090;4.312;2023-04-15T22:10:02;5.1;;;0.8;;
67685;SDS011;54469;52.090;4.312;2023-04-15T22:15:03;5.1;;;0.8;;
67685;SDS011;54469;52.090;4.312;2023-04-15T22:20:03;5.1;;;0.8;;
67685;SDS011;54469;52.090;4.312;2023-04-15T22:25:03;7.1;;;0.8;;
67685;SDS011;54469;52.090;4.312;2023-04-15T22:30:03;7.1;;;0.8;;
67685;SDS011;54469;52.090;4.312;2023-04-15T22:35:03;7.1;;;0.8;;
67685;SDS011;54469;52.090;4.312;2023-04-15T22:40:02;7.1;;;0.8;;
67685;SDS011;54469;52.090;4.312;2023-04-15T22:45:02;4.8;;;1;;
67685;SDS011;54469;52.090;4.312;2023-04-15T22:50:03;4.8;;;1;;
67685;SDS011;54469;52.090;4.312;2023-04-15T22:55:03;4.8;;;1;;
67685;SDS011;54469;52.090;4.312;2023-04-15T23:00:03;4.8;;;1;;
67685;SDS011;54469;52.090;4.312;2023-04-15T23:05:03;4.8;;;1;;
67685;SDS011;54469;52.090;4.312;2023-04-15T23:10:02;10.1;;;1.1;;
67685;SDS011;54469;52.090;4.312;2023-04-15T23:15:02;10.1;;;1.1;;
67685;SDS011;54469;52.090;4.312;2023-04-15T23:20:03;5.2;;;1.2;;
67685;SDS011;54469;52.090;4.312;2023-04-15T23:25:03;11.2;;;1.1;;
67685;SDS011;54469;52.090;4.312;2023-04-15T23:30:03;11.2;;;1.1;;
67685;SDS011;54469;52.090;4.312;2023-04-15T23:35:02;11.2;;;1.1;;
67685;SDS011;54469;52.090;4.312;2023-04-15T23:40:02;11.2;;;1.1;;
67685;SDS011;54469;52.090;4.312;2023-04-15T23:45:03;7.8;;;1.7;;
67685;SDS011;54469;52.090;4.312;2023-04-15T23:50:03;7.8;;;1.7;;
67685;SDS011;54469;52.090;4.312;2023-04-15T23:55:02;7.8;;;1.7;;
